Time;durP1;ratioP1;P1;durP2;ratioP2;P2;SDS_P1;SDS_P2;PMS_P1;PMS_P2;Temp;Humidity;BMP_temperature;BMP_pressure;BME280_temperature;BME280_humidity;BME280_pressure;Samples;Min_cycle;Max_cycle;Signal;HPM_P1;HPM_P2
2023/05/21 00:02:17;;;;;;;2.00;1.80;;;;;14.80;95666.00;;;;5054840;28;20283;-64
2023/05/21 00:04:45;;;;;;;1.60;1.53;;;;;14.80;95669.00;;;;5054052;28;20223;-64
2023/05/21 00:07:14;;;;;;;2.53;2.00;;;;;14.80;95662.00;;;;5054458;28;20245;-64
2023/05/21 00:09:41;;;;;;;2.87;2.67;;;;;14.80;95665.00;;;;5054715;28;20662;-63
2023/05/21 00:12:10;;;;;;;2.20;2.00;;;;;14.80;95660.00;;;;5054358;28;20192;-64
2023/05/21 00:14:37;;;;;;;2.17;1.97;;;;;14.80;95661.00;;;;5054162;28;20220;-64
2023/05/21 00:17:05;;;;;;;2.37;2.17;;;;;14.70;95656.00;;;;5054319;28;20275;-64
2023/05/21 00:19:33;;;;;;;2.53;2.33;;;;;14.70;95649.00;;;;5036333;28;20699;-64
2023/05/21 00:22:02;;;;;;;3.53;2.77;;;;;14.60;95648.00;;;;5054446;28;20191;-63
2023/05/21 00:24:30;;;;;;;1.30;1.30;;;;;14.60;95655.00;;;;5054379;28;20234;-63
2023/05/21 00:26:57;;;;;;;2.10;2.00;;;;;14.60;95648.00;;;;5054422;28;20249;-64
2023/05/21 00:29:26;;;;;;;5.93;2.17;;;;;14.60;95654.00;;;;5054607;28;20196;-63
2023/05/21 00:31:54;;;;;;;2.13;2.03;;;;;14.50;95642.00;;;;5054289;28;20196;-64
2023/05/21 00:34:22;;;;;;;2.03;1.93;;;;;14.50;95640.00;;;;5054122;28;20235;-64
2023/05/21 00:36:49;;;;;;;2.00;1.90;;;;;14.60;95639.00;;;;5054169;28;20223;-65
2023/05/21 00:39:16;;;;;;;1.60;1.50;;;;;14.50;95639.00;;;;5054067;28;20227;-63
2023/05/21 00:41:45;;;;;;;2.77;2.57;;;;;14.60;95637.00;;;;5054047;28;20663;-64
2023/05/21 00:44:13;;;;;;;2.47;2.27;;;;;14.50;95621.00;;;;5053747;28;20231;-64
2023/05/21 00:46:43;;;;;;;2.53;2.33;;;;;14.50;95625.00;;;;5054313;28;20278;-64
2023/05/21 00:49:11;;;;;;;3.27;2.07;;;;;14.50;95625.00;;;;5053720;28;20195;-64
2023/05/21 00:51:38;;;;;;;3.40;2.77;;;;;14.50;95628.00;;;;5053920;28;20691;-64
2023/05/21 00:54:07;;;;;;;3.03;2.80;;;;;14.50;95624.00;;;;5053582;28;20216;-64
2023/05/21 00:56:34;;;;;;;4.27;2.17;;;;;14.50;95626.00;;;;5053875;28;20192;-64
2023/05/21 00:59:04;;;;;;;1.83;1.73;;;;;14.50;95621.00;;;;5053514;28;20222;-64
2023/05/21 01:01:35;;;;;;;2.33;2.23;;;;;14.50;95619.00;;;;5053521;28;20716;-64
2023/05/21 01:04:04;;;;;;;2.70;2.50;;;;;14.40;95620.00;;;;5053482;28;20683;-64
2023/05/21 01:06:33;;;;;;;3.53;2.03;;;;;14.40;95622.00;;;;5053763;28;20196;-64
2023/05/21 01:09:02;;;;;;;2.33;2.20;;;;;14.40;95621.00;;;;5053973;28;20203;-64
2023/05/21 01:11:38;;;;;;;1.90;1.80;;;;;14.40;95619.00;;;;5054401;28;20607;-64
2023/05/21 01:14:08;;;;;;;2.00;1.90;;;;;14.30;95624.00;;;;5053622;28;20306;-64
2023/05/21 01:16:37;;;;;;;2.30;2.20;;;;;14.30;95620.00;;;;5053137;28;20222;-64
2023/05/21 01:19:10;;;;;;;2.30;2.20;;;;;14.30;95614.00;;;;5035322;28;20793;-64
2023/05/21 01:21:41;;;;;;;1.63;1.53;;;;;14.30;95614.00;;;;5053328;28;20180;-64
2023/05/21 01:24:10;;;;;;;1.70;1.57;;;;;14.20;95615.00;;;;5053731;28;20216;-64
2023/05/21 01:26:40;;;;;;;6.83;2.77;;;;;14.10;95613.00;;;;5053138;28;20192;-64
2023/05/21 01:29:11;;;;;;;1.67;1.57;;;;;14.00;95614.00;;;;5053401;28;20559;-64
2023/05/21 01:31:51;;;;;;;2.27;2.13;;;;;14.00;95605.00;;;;5053429;28;20267;-64
2023/05/21 01:34:25;;;;;;;2.40;2.20;;;;;14.10;95613.00;;;;5053095;28;20223;-64
2023/05/21 01:37:00;;;;;;;2.63;2.43;;;;;14.10;95600.00;;;;5053111;28;20186;-64
2023/05/21 01:39:35;;;;;;;3.07;2.43;;;;;14.10;95603.00;;;;5052982;28;20200;-64
2023/05/21 01:42:06;;;;;;;3.40;2.30;;;;;14.10;95598.00;;;;5053120;28;20596;-65
2023/05/21 01:44:35;;;;;;;1.53;1.43;;;;;14.10;95596.00;;;;5053787;28;20604;-64
2023/05/21 01:47:04;;;;;;;1.23;1.23;;;;;14.10;95598.00;;;;5035411;28;20732;-65
2023/05/21 01:49:32;;;;;;;1.97;1.73;;;;;14.00;95597.00;;;;5035146;28;20258;-65
2023/05/21 01:52:01;;;;;;;2.47;2.27;;;;;14.10;95595.00;;;;5052960;28;20196;-65
2023/05/21 01:54:30;;;;;;;4.43;2.33;;;;;14.10;95596.00;;;;5052879;28;20219;-63
2023/05/21 01:56:57;;;;;;;5.13;2.57;;;;;14.00;95590.00;;;;5052834;28;20196;-64
2023/05/21 01:59:24;;;;;;;2.27;2.13;;;;;14.00;95588.00;;;;5052849;28;20215;-63
2023/05/21 02:01:52;;;;;;;2.83;2.63;;;;;14.00;95594.00;;;;5052864;28;20200;-64
2023/05/21 02:04:19;;;;;;;2.53;2.33;;;;;13.90;95590.00;;;;5052828;28;20635;-63
2023/05/21 02:06:47;;;;;;;1.80;1.70;;;;;13.90;95583.00;;;;5053088;28;20255;-64
2023/05/21 02:09:14;;;;;;;1.97;1.87;;;;;13.90;95581.00;;;;5052824;28;20269;-63
2023/05/21 02:11:43;;;;;;;2.47;2.27;;;;;13.90;95581.00;;;;5052767;28;20188;-64
2023/05/21 02:14:12;;;;;;;3.53;2.43;;;;;13.80;95584.00;;;;5052666;28;20646;-64
2023/05/21 02:16:40;;;;;;;2.13;2.00;;;;;13.80;95581.00;;;;5052755;28;20192;-64
2023/05/21 02:19:09;;;;;;;2.67;2.43;;;;;13.90;95579.00;;;;5052654;28;20757;-64
2023/05/21 02:21:36;;;;;;;2.80;2.63;;;;;13.80;95577.00;;;;5052683;28;20279;-64
2023/05/21 02:24:04;;;;;;;2.17;2.07;;;;;13.80;95586.00;;;;5052675;28;20248;-64
2023/05/21 02:26:31;;;;;;;2.43;2.23;;;;;13.90;95571.00;;;;5053557;28;20192;-64
2023/05/21 02:29:00;;;;;;;2.13;1.93;;;;;13.90;95573.00;;;;5056384;28;20192;-64
2023/05/21 02:31:28;;;;;;;2.13;2.03;;;;;13.80;95564.00;;;;5056338;28;20250;-64
2023/05/21 02:33:56;;;;;;;2.47;2.27;;;;;13.90;95574.00;;;;5056267;28;20208;-65
2023/05/21 02:36:25;;;;;;;2.07;1.97;;;;;13.90;95569.00;;;;5056245;28;20244;-64
2023/05/21 02:38:53;;;;;;;3.13;2.93;;;;;13.80;95563.00;;;;5056138;28;20557;-65
2023/05/21 02:41:22;;;;;;;2.47;2.23;;;;;13.80;95570.00;;;;5056143;28;20192;-64
2023/05/21 02:43:49;;;;;;;1.83;1.73;;;;;13.80;95572.00;;;;5056052;28;20265;-64
2023/05/21 02:46:18;;;;;;;1.73;1.67;;;;;13.80;95572.00;;;;5056017;28;20247;-64
2023/05/21 02:48:45;;;;;;;2.83;2.63;;;;;13.80;95569.00;;;;5056267;28;20599;-64
2023/05/21 02:51:12;;;;;;;1.80;1.70;;;;;13.70;95564.00;;;;5056210;28;20211;-64
2023/05/21 02:53:40;;;;;;;3.40;3.10;;;;;13.70;95568.00;;;;5056144;28;20574;-65
2023/05/21 02:56:07;;;;;;;1.60;1.50;;;;;13.70;95569.00;;;;5056415;28;20199;-64
2023/05/21 02:58:35;;;;;;;2.27;2.07;;;;;13.70;95570.00;;;;5056094;28;20667;-64
2023/05/21 03:01:02;;;;;;;3.77;3.47;;;;;13.80;95566.00;;;;5055939;28;20620;-64
2023/05/21 03:03:31;;;;;;;4.30;2.90;;;;;13.60;95567.00;;;;5055696;28;20297;-65
2023/05/21 03:05:59;;;;;;;1.33;1.33;;;;;13.60;95561.00;;;;5055895;28;20188;-64
2023/05/21 03:08:26;;;;;;;3.30;2.87;;;;;13.60;95559.00;;;;5055577;28;20192;-65
2023/05/21 03:10:54;;;;;;;2.80;2.60;;;;;13.50;95568.00;;;;5055611;28;20258;-64
2023/05/21 03:13:21;;;;;;;2.53;2.33;;;;;13.60;95561.00;;;;5055487;28;20314;-65
2023/05/21 03:15:49;;;;;;;2.53;2.33;;;;;13.60;95563.00;;;;5055546;28;20246;-65
2023/05/21 03:18:16;;;;;;;2.90;2.63;;;;;13.60;95559.00;;;;5055461;28;20254;-65
2023/05/21 03:20:45;;;;;;;2.27;1.90;;;;;13.50;95557.00;;;;5055351;28;20222;-65
2023/05/21 03:23:13;;;;;;;3.17;2.97;;;;;13.50;95558.00;;;;5055260;28;20212;-65
2023/05/21 03:25:41;;;;;;;1.90;1.80;;;;;13.60;95560.00;;;;5055287;28;20681;-65
2023/05/21 03:28:09;;;;;;;3.03;2.53;;;;;13.60;95562.00;;;;5055514;28;20192;-65
2023/05/21 03:30:37;;;;;;;2.07;1.87;;;;;13.50;95553.00;;;;5055267;28;20275;-65
2023/05/21 03:33:05;;;;;;;2.30;2.10;;;;;13.40;95552.00;;;;5055081;28;20287;-64
2023/05/21 03:35:32;;;;;;;3.10;2.53;;;;;13.40;95556.00;;;;5055143;28;20226;-64
2023/05/21 03:38:01;;;;;;;1.87;1.77;;;;;13.30;95546.00;;;;5054304;28;20196;-65
2023/05/21 03:40:29;;;;;;;2.00;1.90;;;;;13.30;95562.00;;;;5055466;28;20219;-65
2023/05/21 03:42:56;;;;;;;2.37;2.27;;;;;13.40;95564.00;;;;5037059;28;20694;-65
2023/05/21 03:45:24;;;;;;;4.13;2.30;;;;;13.40;95560.00;;;;5055400;28;20192;-64
2023/05/21 03:47:51;;;;;;;1.63;1.53;;;;;13.40;95559.00;;;;5054853;28;20192;-65
2023/05/21 03:50:18;;;;;;;2.60;2.47;;;;;13.40;95555.00;;;;5054803;28;20196;-64
2023/05/21 03:52:46;;;;;;;2.20;1.93;;;;;13.40;95555.00;;;;5054657;28;20699;-65
2023/05/21 03:55:15;;;;;;;3.10;2.90;;;;;13.40;95563.00;;;;5055781;28;20188;-64
2023/05/21 03:57:42;;;;;;;4.10;2.20;;;;;13.40;95554.00;;;;5055397;28;20200;-64
2023/05/21 04:00:10;;;;;;;2.70;2.17;;;;;13.40;95562.00;;;;5055480;28;20262;-64
2023/05/21 04:02:37;;;;;;;3.17;2.87;;;;;13.40;95558.00;;;;5055155;28;20195;-64
2023/05/21 04:05:05;;;;;;;1.93;1.83;;;;;13.40;95562.00;;;;5055082;28;20203;-64
2023/05/21 04:07:33;;;;;;;4.27;2.57;;;;;13.40;95565.00;;;;5055403;28;20196;-63
2023/05/21 04:10:02;;;;;;;2.50;2.30;;;;;13.40;95556.00;;;;5054757;28;20246;-64
2023/05/21 04:12:31;;;;;;;3.80;3.47;;;;;13.50;95562.00;;;;5054605;28;20282;-65
2023/05/21 04:14:58;;;;;;;1.97;1.87;;;;;13.40;95554.00;;;;5054803;28;20199;-64
2023/05/21 04:17:27;;;;;;;2.33;2.23;;;;;13.40;95563.00;;;;5055434;28;20196;-64
2023/05/21 04:19:54;;;;;;;1.97;1.87;;;;;13.40;95564.00;;;;5054469;28;20258;-64
2023/05/21 04:22:25;;;;;;;2.90;2.70;;;;;13.40;95571.00;;;;5054816;28;20192;-64
2023/05/21 04:24:53;;;;;;;1.93;1.83;;;;;13.40;95564.00;;;;5054680;28;20180;-64
2023/05/21 04:27:22;;;;;;;3.63;3.33;;;;;13.50;95575.00;;;;5055025;28;20196;-65
2023/05/21 04:29:53;;;;;;;2.70;2.57;;;;;13.60;95577.00;;;;5055379;28;20189;-64
2023/05/21 04:32:20;;;;;;;2.33;2.13;;;;;13.60;95579.00;;;;5054168;28;20184;-64
2023/05/21 04:34:48;;;;;;;2.60;2.33;;;;;13.70;95571.00;;;;5053913;28;20258;-65
2023/05/21 04:37:17;;;;;;;2.83;2.63;;;;;13.70;95577.00;;;;5054307;28;20245;-64
2023/05/21 04:39:45;;;;;;;3.13;2.83;;;;;13.70;95580.00;;;;5053795;28;20224;-64
2023/05/21 04:42:13;;;;;;;2.37;2.17;;;;;13.80;95585.00;;;;5036363;28;20663;-62
2023/05/21 04:44:43;;;;;;;2.73;2.57;;;;;13.90;95590.00;;;;5054154;28;20219;-64
2023/05/21 04:47:13;;;;;;;2.30;2.13;;;;;13.80;95577.00;;;;5053731;28;20653;-64
2023/05/21 04:49:41;;;;;;;2.40;2.20;;;;;13.90;95582.00;;;;5053740;28;20180;-64
2023/05/21 04:52:08;;;;;;;2.77;2.53;;;;;13.90;95584.00;;;;5054242;28;20271;-64
2023/05/21 04:54:37;;;;;;;2.60;2.40;;;;;13.90;95583.00;;;;5053903;28;20224;-64
2023/05/21 04:57:05;;;;;;;3.20;2.90;;;;;13.90;95582.00;;;;5053604;28;20730;-63
2023/05/21 04:59:33;;;;;;;2.03;1.93;;;;;14.00;95583.00;;;;5035950;28;20664;-64
2023/05/21 05:02:01;;;;;;;3.27;3.07;;;;;14.00;95590.00;;;;5053525;28;20192;-63
2023/05/21 05:04:29;;;;;;;2.43;1.93;;;;;14.10;95593.00;;;;5053991;28;20220;-63
2023/05/21 05:06:57;;;;;;;2.63;2.43;;;;;14.10;95594.00;;;;5053413;28;20658;-63
2023/05/21 05:09:24;;;;;;;4.13;3.07;;;;;14.10;95589.00;;;;5053464;28;20221;-64
2023/05/21 05:11:52;;;;;;;2.57;2.33;;;;;14.20;95598.00;;;;5053391;28;20242;-64
2023/05/21 05:14:19;;;;;;;2.33;2.23;;;;;14.20;95593.00;;;;5053624;28;20224;-63
2023/05/21 05:16:47;;;;;;;2.53;2.43;;;;;14.20;95589.00;;;;5053546;28;20716;-62
2023/05/21 05:19:15;;;;;;;5.10;3.00;;;;;14.20;95588.00;;;;5053755;28;20275;-63
2023/05/21 05:21:44;;;;;;;3.33;2.67;;;;;14.30;95598.00;;;;5053474;28;20631;-63
2023/05/21 05:24:11;;;;;;;3.60;3.33;;;;;14.30;95598.00;;;;5053628;28;20216;-63
2023/05/21 05:26:38;;;;;;;2.87;2.67;;;;;14.30;95598.00;;;;5053098;28;20188;-64
2023/05/21 05:29:06;;;;;;;2.47;2.27;;;;;14.40;95595.00;;;;5035165;28;20258;-64
2023/05/21 05:31:33;;;;;;;3.07;2.43;;;;;14.40;95596.00;;;;5053074;28;20222;-64
2023/05/21 05:34:01;;;;;;;2.97;2.77;;;;;14.50;95595.00;;;;5053013;28;20216;-64
2023/05/21 05:36:28;;;;;;;2.47;2.27;;;;;14.60;95597.00;;;;5053005;28;20246;-64
2023/05/21 05:38:57;;;;;;;2.33;2.13;;;;;14.70;95594.00;;;;5053338;28;20558;-64
2023/05/21 05:41:25;;;;;;;2.07;1.80;;;;;14.70;95590.00;;;;5052922;28;20223;-64
2023/05/21 05:43:53;;;;;;;2.10;2.00;;;;;14.80;95592.00;;;;5052851;28;20299;-64
2023/05/21 05:46:20;;;;;;;5.13;3.43;;;;;14.90;95583.00;;;;5052972;28;20250;-64
2023/05/21 05:48:48;;;;;;;2.23;2.13;;;;;14.90;95592.00;;;;5053203;28;20283;-64
2023/05/21 05:51:15;;;;;;;3.83;2.90;;;;;15.00;95595.00;;;;5053235;28;20192;-63
2023/05/21 05:53:43;;;;;;;3.40;3.20;;;;;15.10;95585.00;;;;5052796;28;20207;-64
2023/05/21 05:56:12;;;;;;;2.63;2.47;;;;;15.10;95586.00;;;;5053298;28;20188;-63
2023/05/21 05:58:39;;;;;;;3.10;2.30;;;;;15.10;95585.00;;;;5052875;28;20203;-63
2023/05/21 06:01:07;;;;;;;3.20;2.90;;;;;15.20;95587.00;;;;5052174;28;20658;-64
2023/05/21 06:03:34;;;;;;;3.33;3.13;;;;;15.40;95594.00;;;;5056679;28;20220;-64
2023/05/21 06:06:01;;;;;;;4.03;2.97;;;;;15.50;95592.00;;;;5057200;28;20200;-64
2023/05/21 06:08:29;;;;;;;3.73;2.80;;;;;15.60;95588.00;;;;5056688;28;20196;-63
2023/05/21 06:10:56;;;;;;;2.00;1.90;;;;;15.50;95594.00;;;;5056724;28;20217;-64
2023/05/21 06:13:25;;;;;;;3.37;2.67;;;;;15.70;95597.00;;;;5056444;28;20223;-64
2023/05/21 06:15:53;;;;;;;2.83;2.63;;;;;15.80;95587.00;;;;5056665;28;20203;-64
2023/05/21 06:18:21;;;;;;;3.70;3.40;;;;;16.00;95592.00;;;;5056507;28;20200;-63
2023/05/21 06:20:48;;;;;;;2.17;2.07;;;;;15.90;95592.00;;;;5056857;28;20227;-63
2023/05/21 06:23:15;;;;;;;1.97;1.87;;;;;15.90;95590.00;;;;5056441;28;20222;-64
2023/05/21 06:25:43;;;;;;;5.43;3.23;;;;;16.10;95593.00;;;;5057128;28;20192;-63
2023/05/21 06:28:11;;;;;;;2.50;2.30;;;;;16.20;95597.00;;;;5056360;28;20192;-63
2023/05/21 06:30:40;;;;;;;3.13;2.93;;;;;16.30;95593.00;;;;5056396;28;20184;-63
2023/05/21 06:33:07;;;;;;;2.53;2.40;;;;;16.50;95585.00;;;;5056260;28;20610;-65
2023/05/21 06:35:35;;;;;;;1.90;1.80;;;;;16.30;95586.00;;;;5056877;28;20529;-64
2023/05/21 06:38:03;;;;;;;2.73;2.53;;;;;16.40;95593.00;;;;5056132;28;20206;-63
2023/05/21 06:40:30;;;;;;;3.00;2.77;;;;;16.30;95586.00;;;;5056133;28;20211;-66
2023/05/21 06:42:58;;;;;;;2.50;2.30;;;;;16.20;95588.00;;;;5037964;28;20695;-64
2023/05/21 06:45:26;;;;;;;2.43;2.23;;;;;16.60;95589.00;;;;5056296;28;20567;-64
2023/05/21 06:47:54;;;;;;;5.33;2.87;;;;;16.40;95584.00;;;;5056708;28;20543;-63
2023/05/21 06:50:22;;;;;;;2.97;2.77;;;;;16.70;95583.00;;;;5056105;28;20188;-64
2023/05/21 06:52:50;;;;;;;3.47;2.77;;;;;16.80;95587.00;;;;5056210;28;20223;-63
2023/05/21 06:55:18;;;;;;;2.10;1.93;;;;;16.90;95596.00;;;;5055668;28;20199;-63
2023/05/21 06:57:45;;;;;;;2.67;2.43;;;;;17.00;95590.00;;;;5056681;28;20196;-63
2023/05/21 07:00:13;;;;;;;2.37;2.17;;;;;17.40;95592.00;;;;5055615;28;20192;-62
2023/05/21 07:02:41;;;;;;;3.73;3.17;;;;;17.70;95589.00;;;;5055631;28;20200;-63
2023/05/21 07:05:10;;;;;;;2.83;2.63;;;;;17.80;95588.00;;;;5055599;28;20204;-62
2023/05/21 07:07:37;;;;;;;2.20;2.07;;;;;17.90;95574.00;;;;5055539;28;20196;-63
2023/05/21 07:10:06;;;;;;;2.37;2.17;;;;;17.90;95582.00;;;;5055520;28;20189;-64
2023/05/21 07:12:33;;;;;;;3.23;2.50;;;;;18.10;95581.00;;;;5055248;28;20196;-62
2023/05/21 07:15:00;;;;;;;3.17;2.97;;;;;18.30;95580.00;;;;5054905;28;20191;-62
2023/05/21 07:17:28;;;;;;;1.73;1.63;;;;;18.50;95575.00;;;;5055834;28;20215;-62
2023/05/21 07:19:55;;;;;;;2.23;2.10;;;;;18.50;95579.00;;;;5055346;28;20196;-62
2023/05/21 07:22:24;;;;;;;2.73;2.53;;;;;18.70;95583.00;;;;5055342;28;20224;-63
2023/05/21 07:24:51;;;;;;;1.93;1.83;;;;;18.90;95585.00;;;;5055260;28;20595;-63
2023/05/21 07:27:19;;;;;;;2.13;2.03;;;;;19.00;95582.00;;;;5055425;28;20196;-63
2023/05/21 07:29:46;;;;;;;4.57;3.67;;;;;18.90;95586.00;;;;5037147;28;20207;-63
2023/05/21 07:32:14;;;;;;;2.13;2.03;;;;;18.90;95586.00;;;;5055440;28;20203;-62
2023/05/21 07:34:41;;;;;;;2.23;2.13;;;;;18.80;95586.00;;;;5055240;28;20246;-63
2023/05/21 07:37:09;;;;;;;1.70;1.60;;;;;19.00;95577.00;;;;5055142;28;20215;-64
2023/05/21 07:39:38;;;;;;;3.03;2.80;;;;;18.90;95581.00;;;;5056064;28;20546;-63
2023/05/21 07:42:05;;;;;;;1.70;1.60;;;;;18.80;95581.00;;;;5056139;28;20277;-63
2023/05/21 07:44:33;;;;;;;2.40;2.00;;;;;18.80;95582.00;;;;5054746;28;20216;-62
2023/05/21 07:47:00;;;;;;;2.70;2.50;;;;;18.50;95582.00;;;;5055012;28;20196;-63
2023/05/21 07:49:27;;;;;;;1.93;1.80;;;;;18.70;95582.00;;;;5054991;28;20200;-62
2023/05/21 07:51:55;;;;;;;3.27;2.97;;;;;18.80;95583.00;;;;5054699;28;20560;-62
2023/05/21 07:54:22;;;;;;;4.13;3.37;;;;;19.10;95583.00;;;;5054622;28;20284;-64
2023/05/21 07:56:51;;;;;;;9.30;2.03;;;;;19.20;95575.00;;;;5054651;28;20199;-64
2023/05/21 07:59:19;;;;;;;5.03;3.50;;;;;19.30;95578.00;;;;5054791;28;20203;-65
2023/05/21 08:01:47;;;;;;;2.67;2.47;;;;;19.40;95579.00;;;;5054435;28;20211;-64
2023/05/21 08:04:14;;;;;;;2.73;2.13;;;;;19.40;95579.00;;;;5054355;28;20611;-64
2023/05/21 08:06:42;;;;;;;2.57;2.37;;;;;19.40;95576.00;;;;5054487;28;20196;-65
2023/05/21 08:09:09;;;;;;;2.10;2.00;;;;;19.60;95592.00;;;;5054980;28;20188;-63
2023/05/21 08:11:37;;;;;;;1.93;1.77;;;;;19.50;95586.00;;;;5054613;28;20193;-64
2023/05/21 08:14:05;;;;;;;2.63;2.43;;;;;19.60;95578.00;;;;5054227;28;20228;-65
2023/05/21 08:16:33;;;;;;;10.60;2.13;;;;;19.40;95576.00;;;;5054207;28;20196;-65
2023/05/21 08:19:00;;;;;;;2.63;2.43;;;;;19.60;95581.00;;;;5054697;28;20203;-63
2023/05/21 08:21:28;;;;;;;2.47;2.27;;;;;19.60;95580.00;;;;5054158;28;20220;-64
2023/05/21 08:23:56;;;;;;;1.87;1.77;;;;;19.60;95586.00;;;;5054236;28;20305;-62
2023/05/21 08:26:23;;;;;;;3.07;2.60;;;;;19.70;95577.00;;;;5054024;28;20215;-65
2023/05/21 08:28:50;;;;;;;2.23;2.03;;;;;19.60;95580.00;;;;5054576;28;20199;-60
2023/05/21 08:31:20;;;;;;;2.13;2.03;;;;;19.70;95578.00;;;;5054505;28;20192;-63
2023/05/21 08:33:51;;;;;;;2.57;2.37;;;;;19.90;95579.00;;;;5054417;28;20215;-63
2023/05/21 08:36:19;;;;;;;2.87;2.67;;;;;19.90;95588.00;;;;5054059;28;20543;-62
2023/05/21 08:38:46;;;;;;;2.20;1.87;;;;;20.00;95587.00;;;;5054257;28;20196;-64
2023/05/21 08:41:14;;;;;;;2.72;2.53;;;;;20.00;95591.00;;;;5053612;28;20223;-64
2023/05/21 08:43:41;;;;;;;2.92;2.63;;;;;20.20;95582.00;;;;5035764;28;20626;-64
2023/05/21 08:46:09;;;;;;;3.27;2.97;;;;;20.30;95593.00;;;;5053942;28;20266;-64
2023/05/21 08:48:39;;;;;;;2.40;2.20;;;;;20.00;95587.00;;;;5053600;28;20192;-64
2023/05/21 08:51:07;;;;;;;2.33;2.13;;;;;20.30;95589.00;;;;5053506;28;20184;-64
2023/05/21 08:53:34;;;;;;;3.33;3.03;;;;;20.50;95592.00;;;;5053496;28;20700;-63
2023/05/21 08:56:02;;;;;;;2.85;2.65;;;;;20.70;95591.00;;;;5053846;28;20196;-64
2023/05/21 08:58:32;;;;;;;2.30;2.10;;;;;20.80;95590.00;;;;5053430;28;20274;-65
2023/05/21 09:01:00;;;;;;;2.60;2.50;;;;;20.90;95593.00;;;;5036107;28;20207;-62
2023/05/21 09:03:30;;;;;;;2.53;2.25;;;;;21.10;95597.00;;;;5053800;28;20222;-62
2023/05/21 09:06:00;;;;;;;2.13;1.93;;;;;21.10;95595.00;;;;5053682;28;20172;-63
2023/05/21 09:08:31;;;;;;;2.85;2.47;;;;;21.20;95597.00;;;;5053546;28;20222;-63
2023/05/21 09:11:01;;;;;;;2.33;2.13;;;;;21.30;95596.00;;;;5052611;28;20239;-62
2023/05/21 09:13:30;;;;;;;2.72;2.53;;;;;21.50;95597.00;;;;5053378;28;20219;-63
2023/05/21 09:15:59;;;;;;;2.72;2.53;;;;;21.50;95591.00;;;;5053303;28;20196;-64
2023/05/21 09:18:27;;;;;;;2.38;1.98;;;;;21.80;95597.00;;;;5053196;28;20197;-64
2023/05/21 09:20:55;;;;;;;1.85;1.75;;;;;22.00;95596.00;;;;5054057;28;20220;-66
2023/05/21 09:23:24;;;;;;;2.45;2.28;;;;;22.30;95588.00;;;;5053375;28;20228;-63
2023/05/21 09:25:51;;;;;;;2.95;2.65;;;;;22.60;95600.00;;;;5053127;28;20258;-64
2023/05/21 09:28:20;;;;;;;1.83;1.73;;;;;22.30;95592.00;;;;5052901;28;20187;-65
2023/05/21 09:30:48;;;;;;;2.38;2.17;;;;;22.30;95591.00;;;;5053483;28;20192;-63
2023/05/21 09:33:25;;;;;;;2.47;2.28;;;;;22.60;95595.00;;;;5053262;28;20254;-64
2023/05/21 09:35:53;;;;;;;2.50;2.08;;;;;22.70;95597.00;;;;5052684;28;20177;-64
2023/05/21 09:38:24;;;;;;;3.95;2.45;;;;;22.60;95594.00;;;;5052865;28;20195;-64
2023/05/21 09:40:54;;;;;;;2.58;2.28;;;;;22.70;95601.00;;;;5035294;28;20728;-64
2023/05/21 09:43:22;;;;;;;1.95;1.85;;;;;22.30;95600.00;;;;5053224;28;20231;-64
2023/05/21 09:45:53;;;;;;;2.65;2.45;;;;;22.30;95606.00;;;;5054257;28;20707;-63
2023/05/21 09:48:34;;;;;;;2.72;2.30;;;;;22.40;95610.00;;;;5035541;28;20196;-64
2023/05/21 09:51:12;;;;;;;1.80;1.70;;;;;22.40;95610.00;;;;5053082;28;20188;-64
2023/05/21 09:53:50;;;;;;;2.15;2.03;;;;;22.20;95607.00;;;;5053029;28;20219;-65
2023/05/21 09:56:23;;;;;;;4.05;3.22;;;;;22.40;95605.00;;;;5053582;28;20187;-64
2023/05/21 09:58:53;;;;;;;1.83;1.73;;;;;22.20;95603.00;;;;5052836;28;20603;-62
2023/05/21 10:01:21;;;;;;;1.63;1.52;;;;;22.30;95613.00;;;;5052731;28;20245;-64
2023/05/21 10:03:54;;;;;;;2.20;2.05;;;;;22.30;95601.00;;;;5052903;28;20616;-65
2023/05/21 10:06:24;;;;;;;4.47;3.35;;;;;22.40;95599.00;;;;5053241;28;20259;-64
2023/05/21 10:08:55;;;;;;;2.35;2.15;;;;;22.40;95605.00;;;;5052581;28;20200;-64
2023/05/21 10:11:25;;;;;;;1.95;1.85;;;;;22.20;95607.00;;;;5053012;28;20176;-63
2023/05/21 10:13:58;;;;;;;5.15;1.98;;;;;22.20;95602.00;;;;5052546;28;20238;-62
2023/05/21 10:16:25;;;;;;;2.88;2.67;;;;;22.40;95594.00;;;;5053436;28;20180;-62
2023/05/21 10:18:56;;;;;;;4.10;2.03;;;;;22.50;95598.00;;;;5052556;28;20196;-62
2023/05/21 10:21:24;;;;;;;2.97;2.65;;;;;22.50;95601.00;;;;5052481;28;20216;-63
2023/05/21 10:23:56;;;;;;;1.58;1.48;;;;;22.70;95597.00;;;;5052460;28;20231;-63
2023/05/21 10:26:25;;;;;;;2.05;1.95;;;;;22.90;95595.00;;;;5052698;28;20238;-63
2023/05/21 10:28:54;;;;;;;2.25;2.13;;;;;23.10;95589.00;;;;5052340;28;20188;-63
2023/05/21 10:31:24;;;;;;;1.98;1.88;;;;;23.40;95586.00;;;;5052743;28;20189;-62
2023/05/21 10:33:53;;;;;;;2.75;2.55;;;;;23.60;95593.00;;;;5052350;28;20235;-63
2023/05/21 10:36:21;;;;;;;1.85;1.75;;;;;23.60;95588.00;;;;5052549;28;20192;-63
2023/05/21 10:38:48;;;;;;;2.05;1.95;;;;;24.10;95585.00;;;;5052318;28;20228;-64
2023/05/21 10:41:20;;;;;;;2.78;2.58;;;;;24.20;95586.00;;;;5034453;28;20686;-63
2023/05/21 10:44:10;;;;;;;2.47;2.28;;;;;24.50;95589.00;;;;5052345;28;20224;-63
2023/05/21 10:47:05;;;;;;;6.45;2.95;;;;;24.50;95585.00;;;;5052564;28;20188;-63
2023/05/21 10:50:03;;;;;;;2.38;2.17;;;;;24.80;95577.00;;;;5055842;28;20184;-62
2023/05/21 10:52:55;;;;;;;2.58;2.38;;;;;24.40;95581.00;;;;5055792;28;20203;-64
2023/05/21 10:55:36;;;;;;;2.90;2.63;;;;;24.60;95575.00;;;;5055799;28;20184;-63
2023/05/21 10:58:30;;;;;;;1.80;1.70;;;;;25.10;95576.00;;;;5056366;28;20195;-65
2023/05/21 11:00:59;;;;;;;4.22;2.38;;;;;25.10;95567.00;;;;4994534;28;20346;-63
2023/05/21 11:03:27;;;;;;;2.10;1.98;;;;;25.30;95581.00;;;;5044501;28;20242;-64
2023/05/21 11:05:56;;;;;;;3.25;2.30;;;;;25.00;95580.00;;;;5055712;28;20199;-64
2023/05/21 11:08:25;;;;;;;3.28;1.42;;;;;24.70;95580.00;;;;5055797;28;20529;-64
2023/05/21 11:10:53;;;;;;;2.20;2.00;;;;;25.10;95582.00;;;;5055967;28;20188;-64
2023/05/21 11:13:22;;;;;;;2.15;2.05;;;;;25.60;95582.00;;;;5055771;28;20216;-63
2023/05/21 11:16:13;;;;;;;2.17;2.08;;;;;25.80;95576.00;;;;5055626;28;20278;-63
2023/05/21 11:19:00;;;;;;;1.85;1.75;;;;;26.00;95590.00;;;;5055694;28;20620;-64
2023/05/21 11:21:30;;;;;;;1.52;1.42;;;;;26.20;95587.00;;;;5055309;28;20219;-64
2023/05/21 11:24:02;;;;;;;1.92;1.83;;;;;26.20;95589.00;;;;5055865;28;20326;-63
2023/05/21 11:26:51;;;;;;;3.00;2.70;;;;;26.20;95589.00;;;;5055949;28;20184;-63
2023/05/21 11:29:20;;;;;;;3.42;2.70;;;;;26.10;95579.00;;;;5056273;28;20200;-63
2023/05/21 11:31:49;;;;;;;2.35;2.15;;;;;26.10;95579.00;;;;5056158;28;20560;-64
2023/05/21 11:34:20;;;;;;;2.35;1.80;;;;;26.50;95585.00;;;;5053879;28;20718;-64
2023/05/21 11:36:49;;;;;;;1.75;1.65;;;;;26.60;95585.00;;;;5055022;28;20177;-64
2023/05/21 11:39:20;;;;;;;4.43;2.95;;;;;26.60;95578.00;;;;5055189;28;20192;-64
2023/05/21 11:41:52;;;;;;;2.35;2.15;;;;;26.60;95577.00;;;;5055070;28;20181;-64
2023/05/21 11:44:37;;;;;;;2.17;2.08;;;;;26.80;95585.00;;;;5055121;28;20216;-63
2023/05/21 11:47:05;;;;;;;2.63;2.42;;;;;26.90;95586.00;;;;5054922;28;20188;-64
2023/05/21 11:49:33;;;;;;;1.98;1.88;;;;;26.90;95588.00;;;;5055845;28;20193;-63
2023/05/21 11:52:02;;;;;;;2.25;2.05;;;;;27.00;95587.00;;;;5055168;28;20188;-62
2023/05/21 11:54:32;;;;;;;2.30;2.13;;;;;27.00;95587.00;;;;5036938;28;20219;-63
2023/05/21 11:57:01;;;;;;;2.25;2.05;;;;;26.90;95589.00;;;;5054950;28;20253;-64
2023/05/21 11:59:32;;;;;;;2.70;1.90;;;;;26.90;95581.00;;;;5053949;28;20230;-64
2023/05/21 12:01:59;;;;;;;2.47;2.28;;;;;26.90;95581.00;;;;5054581;28;20177;-63
2023/05/21 12:04:30;;;;;;;2.13;1.45;;;;;26.80;95580.00;;;;5055150;28;20286;-63
2023/05/21 12:06:58;;;;;;;2.63;2.30;;;;;27.20;95577.00;;;;5055054;28;20180;-63
2023/05/21 12:09:25;;;;;;;1.27;1.23;;;;;27.10;95580.00;;;;5055371;28;20274;-62
2023/05/21 12:11:53;;;;;;;3.38;2.85;;;;;27.30;95586.00;;;;5054899;28;20624;-63
2023/05/21 12:14:22;;;;;;;2.08;1.98;;;;;27.50;95591.00;;;;5054944;28;20246;-63
2023/05/21 12:16:51;;;;;;;2.30;2.20;;;;;27.10;95582.00;;;;5054926;28;20215;-62
2023/05/21 12:19:19;;;;;;;1.52;1.42;;;;;27.00;95578.00;;;;5054648;28;20668;-63
2023/05/21 12:21:46;;;;;;;1.30;1.30;;;;;27.30;95591.00;;;;5054063;28;20699;-64
2023/05/21 12:24:16;;;;;;;1.73;1.63;;;;;27.70;95581.00;;;;5053878;28;20281;-63
2023/05/21 12:26:45;;;;;;;1.85;1.70;;;;;27.80;95590.00;;;;5053850;28;20709;-63
2023/05/21 12:29:13;;;;;;;2.58;2.38;;;;;28.00;95595.00;;;;5054546;28;20196;-63